sensor_id;sensor_type;location;lat;lon;timestamp;P1;durP1;ratioP1;P2;durP2;ratioP2
77513;SDS011;66626;48.872;9.084;2024-01-30T00:00:23;8.15;;;4.25;;
77513;SDS011;66626;48.872;9.084;2024-01-30T00:02:48;7.13;;;4.03;;
77513;SDS011;66626;48.872;9.084;2024-01-30T00:05:13;10.27;;;3.88;;
77513;SDS011;66626;48.872;9.084;2024-01-30T00:07:39;8.63;;;4.60;;
77513;SDS011;66626;48.872;9.084;2024-01-30T00:10:04;9.18;;;4.30;;
77513;SDS011;66626;48.872;9.084;2024-01-30T00:12:31;8.98;;;4.20;;
77513;SDS011;66626;48.872;9.084;2024-01-30T00:14:56;8.05;;;3.78;;
77513;SDS011;66626;48.872;9.084;2024-01-30T00:17:23;8.23;;;4.40;;
77513;SDS011;66626;48.872;9.084;2024-01-30T00:19:50;10.13;;;4.70;;
77513;SDS011;66626;48.872;9.084;2024-01-30T00:22:15;8.27;;;4.25;;
77513;SDS011;66626;48.872;9.084;2024-01-30T00:24:40;7.57;;;4.50;;
77513;SDS011;66626;48.872;9.084;2024-01-30T00:27:06;11.75;;;4.85;;
77513;SDS011;66626;48.872;9.084;2024-01-30T00:29:31;11.07;;;4.22;;
77513;SDS011;66626;48.872;9.084;2024-01-30T00:31:58;10.00;;;4.30;;
77513;SDS011;66626;48.872;9.084;2024-01-30T00:34:24;8.82;;;4.68;;
77513;SDS011;66626;48.872;9.084;2024-01-30T00:36:49;8.85;;;4.63;;
77513;SDS011;66626;48.872;9.084;2024-01-30T00:39:15;8.10;;;4.00;;
77513;SDS011;66626;48.872;9.084;2024-01-30T00:41:40;11.05;;;4.18;;
77513;SDS011;66626;48.872;9.084;2024-01-30T00:44:06;7.80;;;4.10;;
77513;SDS011;66626;48.872;9.084;2024-01-30T00:46:31;8.95;;;4.03;;
77513;SDS011;66626;48.872;9.084;2024-01-30T00:48:57;8.38;;;4.10;;
77513;SDS011;66626;48.872;9.084;2024-01-30T00:51:22;8.95;;;4.13;;
77513;SDS011;66626;48.872;9.084;2024-01-30T00:53:47;7.78;;;4.13;;
77513;SDS011;66626;48.872;9.084;2024-01-30T00:56:12;9.73;;;4.45;;
77513;SDS011;66626;48.872;9.084;2024-01-30T00:58:38;7.82;;;4.07;;
77513;SDS011;66626;48.872;9.084;2024-01-30T01:01:04;8.95;;;4.03;;
77513;SDS011;66626;48.872;9.084;2024-01-30T01:03:29;9.75;;;4.47;;
77513;SDS011;66626;48.872;9.084;2024-01-30T01:05:54;11.32;;;3.67;;
77513;SDS011;66626;48.872;9.084;2024-01-30T01:08:20;10.02;;;4.47;;
77513;SDS011;66626;48.872;9.084;2024-01-30T01:10:45;9.05;;;4.00;;
77513;SDS011;66626;48.872;9.084;2024-01-30T01:13:10;11.15;;;4.18;;
77513;SDS011;66626;48.872;9.084;2024-01-30T01:15:36;8.65;;;4.80;;
77513;SDS011;66626;48.872;9.084;2024-01-30T01:18:03;8.52;;;4.35;;
77513;SDS011;66626;48.872;9.084;2024-01-30T01:20:28;9.43;;;3.90;;
77513;SDS011;66626;48.872;9.084;2024-01-30T01:22:54;8.95;;;4.55;;
77513;SDS011;66626;48.872;9.084;2024-01-30T01:25:19;8.40;;;3.85;;
77513;SDS011;66626;48.872;9.084;2024-01-30T01:27:44;8.70;;;4.45;;
77513;SDS011;66626;48.872;9.084;2024-01-30T01:30:16;9.05;;;4.70;;
77513;SDS011;66626;48.872;9.084;2024-01-30T01:32:46;12.93;;;4.93;;
77513;SDS011;66626;48.872;9.084;2024-01-30T01:35:15;8.93;;;4.32;;
77513;SDS011;66626;48.872;9.084;2024-01-30T01:37:41;9.55;;;4.20;;
77513;SDS011;66626;48.872;9.084;2024-01-30T01:40:06;9.80;;;4.22;;
77513;SDS011;66626;48.872;9.084;2024-01-30T01:42:32;8.40;;;3.72;;
77513;SDS011;66626;48.872;9.084;2024-01-30T01:44:58;9.23;;;4.32;;
77513;SDS011;66626;48.872;9.084;2024-01-30T01:47:23;10.73;;;4.53;;
77513;SDS011;66626;48.872;9.084;2024-01-30T01:49:48;8.40;;;4.00;;
77513;SDS011;66626;48.872;9.084;2024-01-30T01:52:14;8.80;;;4.10;;
77513;SDS011;66626;48.872;9.084;2024-01-30T01:54:39;10.32;;;3.85;;
77513;SDS011;66626;48.872;9.084;2024-01-30T01:57:05;8.75;;;4.15;;
77513;SDS011;66626;48.872;9.084;2024-01-30T01:59:30;7.35;;;4.10;;
77513;SDS011;66626;48.872;9.084;2024-01-30T02:01:56;6.93;;;3.80;;
77513;SDS011;66626;48.872;9.084;2024-01-30T02:04:21;10.52;;;3.85;;
77513;SDS011;66626;48.872;9.084;2024-01-30T02:06:47;11.13;;;5.03;;
77513;SDS011;66626;48.872;9.084;2024-01-30T02:09:12;7.82;;;4.00;;
77513;SDS011;66626;48.872;9.084;2024-01-30T02:11:38;8.75;;;4.25;;
77513;SDS011;66626;48.872;9.084;2024-01-30T02:14:04;8.32;;;4.20;;
77513;SDS011;66626;48.872;9.084;2024-01-30T02:16:29;8.20;;;4.05;;
77513;SDS011;66626;48.872;9.084;2024-01-30T02:18:55;11.60;;;4.95;;
77513;SDS011;66626;48.872;9.084;2024-01-30T02:21:20;11.38;;;5.53;;
77513;SDS011;66626;48.872;9.084;2024-01-30T02:23:49;12.10;;;5.75;;
77513;SDS011;66626;48.872;9.084;2024-01-30T02:26:16;12.80;;;5.50;;
77513;SDS011;66626;48.872;9.084;2024-01-30T02:28:41;8.73;;;4.30;;
77513;SDS011;66626;48.872;9.084;2024-01-30T02:31:06;9.43;;;4.65;;
77513;SDS011;66626;48.872;9.084;2024-01-30T02:33:31;9.60;;;4.88;;
77513;SDS011;66626;48.872;9.084;2024-01-30T02:35:57;7.80;;;3.75;;
77513;SDS011;66626;48.872;9.084;2024-01-30T02:38:23;8.70;;;4.32;;
77513;SDS011;66626;48.872;9.084;2024-01-30T02:40:48;8.13;;;3.92;;
77513;SDS011;66626;48.872;9.084;2024-01-30T02:43:14;9.60;;;4.55;;
77513;SDS011;66626;48.872;9.084;2024-01-30T02:45:39;8.35;;;4.50;;
77513;SDS011;66626;48.872;9.084;2024-01-30T02:48:04;8.75;;;4.57;;
77513;SDS011;66626;48.872;9.084;2024-01-30T02:50:30;11.35;;;5.45;;
77513;SDS011;66626;48.872;9.084;2024-01-30T02:52:55;9.52;;;4.15;;
77513;SDS011;66626;48.872;9.084;2024-01-30T02:55:21;9.57;;;4.93;;
77513;SDS011;66626;48.872;9.084;2024-01-30T02:57:46;9.70;;;4.68;;
77513;SDS011;66626;48.872;9.084;2024-01-30T03:00:12;11.88;;;4.50;;
77513;SDS011;66626;48.872;9.084;2024-01-30T03:02:37;9.35;;;4.88;;
77513;SDS011;66626;48.872;9.084;2024-01-30T03:05:03;9.15;;;4.60;;
77513;SDS011;66626;48.872;9.084;2024-01-30T03:07:30;11.13;;;5.15;;
77513;SDS011;66626;48.872;9.084;2024-01-30T03:09:55;9.68;;;4.68;;
77513;SDS011;66626;48.872;9.084;2024-01-30T03:12:21;8.32;;;4.63;;
77513;SDS011;66626;48.872;9.084;2024-01-30T03:14:46;10.70;;;4.93;;
77513;SDS011;66626;48.872;9.084;2024-01-30T03:17:12;15.38;;;6.40;;
77513;SDS011;66626;48.872;9.084;2024-01-30T03:19:37;9.75;;;4.60;;
77513;SDS011;66626;48.872;9.084;2024-01-30T03:22:02;13.60;;;5.78;;
77513;SDS011;66626;48.872;9.084;2024-01-30T03:24:28;11.35;;;4.70;;
77513;SDS011;66626;48.872;9.084;2024-01-30T03:26:53;9.73;;;4.38;;
77513;SDS011;66626;48.872;9.084;2024-01-30T03:29:18;16.45;;;4.88;;
77513;SDS011;66626;48.872;9.084;2024-01-30T03:31:44;13.73;;;5.00;;
77513;SDS011;66626;48.872;9.084;2024-01-30T03:34:09;11.50;;;4.85;;
77513;SDS011;66626;48.872;9.084;2024-01-30T03:36:34;10.30;;;4.93;;
77513;SDS011;66626;48.872;9.084;2024-01-30T03:39:00;9.55;;;4.53;;
77513;SDS011;66626;48.872;9.084;2024-01-30T03:41:26;9.80;;;4.82;;
77513;SDS011;66626;48.872;9.084;2024-01-30T03:43:51;9.90;;;4.72;;
77513;SDS011;66626;48.872;9.084;2024-01-30T03:46:17;8.68;;;4.60;;
77513;SDS011;66626;48.872;9.084;2024-01-30T03:48:42;11.80;;;4.60;;
77513;SDS011;66626;48.872;9.084;2024-01-30T03:51:07;10.85;;;4.88;;
77513;SDS011;66626;48.872;9.084;2024-01-30T03:53:33;7.78;;;4.22;;
77513;SDS011;66626;48.872;9.084;2024-01-30T03:55:59;10.15;;;5.25;;
77513;SDS011;66626;48.872;9.084;2024-01-30T03:58:24;11.05;;;4.43;;
77513;SDS011;66626;48.872;9.084;2024-01-30T04:00:49;9.77;;;4.40;;
77513;SDS011;66626;48.872;9.084;2024-01-30T04:03:15;10.13;;;4.15;;
77513;SDS011;66626;48.872;9.084;2024-01-30T04:05:40;8.95;;;4.72;;
77513;SDS011;66626;48.872;9.084;2024-01-30T04:08:06;8.95;;;4.45;;
77513;SDS011;66626;48.872;9.084;2024-01-30T04:10:32;8.43;;;4.45;;
77513;SDS011;66626;48.872;9.084;2024-01-30T04:12:57;7.10;;;4.22;;
77513;SDS011;66626;48.872;9.084;2024-01-30T04:15:22;7.65;;;3.60;;
77513;SDS011;66626;48.872;9.084;2024-01-30T04:17:47;7.93;;;4.25;;
77513;SDS011;66626;48.872;9.084;2024-01-30T04:20:14;8.73;;;4.97;;
77513;SDS011;66626;48.872;9.084;2024-01-30T04:22:41;10.90;;;5.05;;
77513;SDS011;66626;48.872;9.084;2024-01-30T04:25:10;11.45;;;4.88;;
77513;SDS011;66626;48.872;9.084;2024-01-30T04:27:36;12.38;;;5.38;;
77513;SDS011;66626;48.872;9.084;2024-01-30T04:30:01;12.88;;;5.13;;
77513;SDS011;66626;48.872;9.084;2024-01-30T04:32:27;8.85;;;4.63;;
77513;SDS011;66626;48.872;9.084;2024-01-30T04:34:52;10.35;;;5.18;;
77513;SDS011;66626;48.872;9.084;2024-01-30T04:37:17;9.50;;;4.85;;
77513;SDS011;66626;48.872;9.084;2024-01-30T04:39:43;11.00;;;5.35;;
77513;SDS011;66626;48.872;9.084;2024-01-30T04:42:08;9.45;;;5.28;;
77513;SDS011;66626;48.872;9.084;2024-01-30T04:44:33;10.45;;;5.22;;
77513;SDS011;66626;48.872;9.084;2024-01-30T04:46:59;10.43;;;5.07;;
77513;SDS011;66626;48.872;9.084;2024-01-30T04:49:26;7.53;;;4.20;;
77513;SDS011;66626;48.872;9.084;2024-01-30T04:51:52;9.15;;;5.28;;
77513;SDS011;66626;48.872;9.084;2024-01-30T04:54:17;11.93;;;5.82;;
77513;SDS011;66626;48.872;9.084;2024-01-30T04:56:42;12.82;;;5.78;;
77513;SDS011;66626;48.872;9.084;2024-01-30T04:59:08;10.40;;;5.10;;
77513;SDS011;66626;48.872;9.084;2024-01-30T05:01:33;9.63;;;5.05;;
77513;SDS011;66626;48.872;9.084;2024-01-30T05:03:59;8.52;;;4.75;;
77513;SDS011;66626;48.872;9.084;2024-01-30T05:06:25;13.88;;;4.32;;
77513;SDS011;66626;48.872;9.084;2024-01-30T05:08:50;10.18;;;4.50;;
77513;SDS011;66626;48.872;9.084;2024-01-30T05:11:16;10.05;;;5.20;;
77513;SDS011;66626;48.872;9.084;2024-01-30T05:13:41;11.38;;;5.38;;
77513;SDS011;66626;48.872;9.084;2024-01-30T05:16:06;12.07;;;4.72;;
77513;SDS011;66626;48.872;9.084;2024-01-30T05:18:32;9.90;;;5.38;;
77513;SDS011;66626;48.872;9.084;2024-01-30T05:20:57;14.57;;;6.28;;
77513;SDS011;66626;48.872;9.084;2024-01-30T05:23:23;11.20;;;5.80;;
77513;SDS011;66626;48.872;9.084;2024-01-30T05:25:48;12.63;;;5.95;;
77513;SDS011;66626;48.872;9.084;2024-01-30T05:28:13;10.00;;;5.25;;
77513;SDS011;66626;48.872;9.084;2024-01-30T05:30:38;9.48;;;5.82;;
77513;SDS011;66626;48.872;9.084;2024-01-30T05:33:04;9.63;;;5.28;;
77513;SDS011;66626;48.872;9.084;2024-01-30T05:35:29;9.85;;;4.95;;
77513;SDS011;66626;48.872;9.084;2024-01-30T05:37:55;9.20;;;5.32;;
77513;SDS011;66626;48.872;9.084;2024-01-30T05:40:20;9.73;;;5.38;;
77513;SDS011;66626;48.872;9.084;2024-01-30T05:42:45;10.60;;;5.40;;
77513;SDS011;66626;48.872;9.084;2024-01-30T05:45:11;11.68;;;5.72;;
77513;SDS011;66626;48.872;9.084;2024-01-30T05:47:36;10.25;;;5.15;;
77513;SDS011;66626;48.872;9.084;2024-01-30T05:50:04;8.85;;;4.63;;
77513;SDS011;66626;48.872;9.084;2024-01-30T05:52:30;11.68;;;4.90;;
77513;SDS011;66626;48.872;9.084;2024-01-30T05:54:56;8.98;;;5.13;;
77513;SDS011;66626;48.872;9.084;2024-01-30T05:57:21;10.50;;;5.22;;
77513;SDS011;66626;48.872;9.084;2024-01-30T05:59:46;10.85;;;4.88;;
77513;SDS011;66626;48.872;9.084;2024-01-30T06:02:12;8.48;;;5.40;;
77513;SDS011;66626;48.872;9.084;2024-01-30T06:04:38;13.20;;;5.63;;
77513;SDS011;66626;48.872;9.084;2024-01-30T06:07:03;12.25;;;5.18;;
77513;SDS011;66626;48.872;9.084;2024-01-30T06:09:31;10.55;;;6.15;;
77513;SDS011;66626;48.872;9.084;2024-01-30T06:11:56;9.93;;;5.30;;
77513;SDS011;66626;48.872;9.084;2024-01-30T06:14:21;11.55;;;5.43;;
77513;SDS011;66626;48.872;9.084;2024-01-30T06:16:47;14.43;;;5.90;;
77513;SDS011;66626;48.872;9.084;2024-01-30T06:19:12;14.40;;;5.55;;
77513;SDS011;66626;48.872;9.084;2024-01-30T06:21:37;13.60;;;5.95;;
77513;SDS011;66626;48.872;9.084;2024-01-30T06:24:03;10.88;;;5.75;;
77513;SDS011;66626;48.872;9.084;2024-01-30T06:26:29;9.95;;;5.28;;
77513;SDS011;66626;48.872;9.084;2024-01-30T06:28:54;9.88;;;5.20;;
77513;SDS011;66626;48.872;9.084;2024-01-30T06:31:19;10.70;;;5.80;;
77513;SDS011;66626;48.872;9.084;2024-01-30T06:33:48;11.07;;;4.57;;
77513;SDS011;66626;48.872;9.084;2024-01-30T06:36:14;8.73;;;4.90;;
77513;SDS011;66626;48.872;9.084;2024-01-30T06:38:40;16.48;;;5.70;;
77513;SDS011;66626;48.872;9.084;2024-01-30T06:41:06;12.15;;;6.03;;
77513;SDS011;66626;48.872;9.084;2024-01-30T06:43:31;12.73;;;6.03;;
77513;SDS011;66626;48.872;9.084;2024-01-30T06:45:56;10.13;;;5.55;;
77513;SDS011;66626;48.872;9.084;2024-01-30T06:48:22;11.93;;;5.68;;
77513;SDS011;66626;48.872;9.084;2024-01-30T06:50:47;12.10;;;6.45;;
77513;SDS011;66626;48.872;9.084;2024-01-30T06:53:14;15.85;;;7.03;;
77513;SDS011;66626;48.872;9.084;2024-01-30T06:55:39;12.05;;;5.72;;
77513;SDS011;66626;48.872;9.084;2024-01-30T06:58:04;13.88;;;6.95;;
77513;SDS011;66626;48.872;9.084;2024-01-30T07:00:31;28.65;;;13.98;;
77513;SDS011;66626;48.872;9.084;2024-01-30T07:02:56;27.02;;;13.32;;
77513;SDS011;66626;48.872;9.084;2024-01-30T07:05:21;13.95;;;7.07;;
77513;SDS011;66626;48.872;9.084;2024-01-30T07:07:47;13.82;;;6.97;;
77513;SDS011;66626;48.872;9.084;2024-01-30T07:10:12;15.40;;;7.22;;
77513;SDS011;66626;48.872;9.084;2024-01-30T07:12:37;14.75;;;5.20;;
77513;SDS011;66626;48.872;9.084;2024-01-30T07:15:03;11.10;;;5.13;;
77513;SDS011;66626;48.872;9.084;2024-01-30T07:17:29;12.23;;;5.50;;
77513;SDS011;66626;48.872;9.084;2024-01-30T07:19:54;11.80;;;6.05;;
77513;SDS011;66626;48.872;9.084;2024-01-30T07:22:19;10.10;;;5.78;;
77513;SDS011;66626;48.872;9.084;2024-01-30T07:24:45;10.13;;;5.07;;
77513;SDS011;66626;48.872;9.084;2024-01-30T07:27:12;10.23;;;6.07;;
77513;SDS011;66626;48.872;9.084;2024-01-30T07:29:38;11.90;;;7.07;;
77513;SDS011;66626;48.872;9.084;2024-01-30T07:32:03;12.90;;;6.38;;
77513;SDS011;66626;48.872;9.084;2024-01-30T07:34:29;12.98;;;6.35;;
77513;SDS011;66626;48.872;9.084;2024-01-30T07:36:54;15.63;;;6.45;;
77513;SDS011;66626;48.872;9.084;2024-01-30T07:39:19;10.95;;;5.28;;
77513;SDS011;66626;48.872;9.084;2024-01-30T07:41:45;10.73;;;5.32;;
77513;SDS011;66626;48.872;9.084;2024-01-30T07:44:11;10.65;;;5.82;;
77513;SDS011;66626;48.872;9.084;2024-01-30T07:46:36;12.52;;;6.43;;
77513;SDS011;66626;48.872;9.084;2024-01-30T07:49:02;10.65;;;5.18;;
77513;SDS011;66626;48.872;9.084;2024-01-30T07:51:27;9.35;;;4.15;;
77513;SDS011;66626;48.872;9.084;2024-01-30T07:53:54;9.13;;;5.18;;
77513;SDS011;66626;48.872;9.084;2024-01-30T07:56:20;14.38;;;5.50;;
77513;SDS011;66626;48.872;9.084;2024-01-30T07:58:45;11.40;;;6.22;;
77513;SDS011;66626;48.872;9.084;2024-01-30T08:01:14;19.05;;;7.82;;
77513;SDS011;66626;48.872;9.084;2024-01-30T08:03:46;16.20;;;7.72;;
77513;SDS011;66626;48.872;9.084;2024-01-30T08:06:11;16.20;;;6.95;;
77513;SDS011;66626;48.872;9.084;2024-01-30T08:08:37;12.80;;;6.38;;
77513;SDS011;66626;48.872;9.084;2024-01-30T08:11:03;15.52;;;6.88;;
77513;SDS011;66626;48.872;9.084;2024-01-30T08:13:28;11.43;;;5.82;;
77513;SDS011;66626;48.872;9.084;2024-01-30T08:15:53;16.30;;;5.55;;
77513;SDS011;66626;48.872;9.084;2024-01-30T08:18:19;8.95;;;5.57;;
77513;SDS011;66626;48.872;9.084;2024-01-30T08:20:44;13.48;;;6.18;;
77513;SDS011;66626;48.872;9.084;2024-01-30T08:23:09;11.65;;;6.32;;
77513;SDS011;66626;48.872;9.084;2024-01-30T08:25:35;10.90;;;5.70;;
77513;SDS011;66626;48.872;9.084;2024-01-30T08:28:01;10.75;;;5.97;;
77513;SDS011;66626;48.872;9.084;2024-01-30T08:30:26;14.15;;;5.28;;
77513;SDS011;66626;48.872;9.084;2024-01-30T08:32:52;9.40;;;4.82;;
77513;SDS011;66626;48.872;9.084;2024-01-30T08:35:17;11.10;;;5.50;;
77513;SDS011;66626;48.872;9.084;2024-01-30T08:37:43;10.57;;;4.97;;
77513;SDS011;66626;48.872;9.084;2024-01-30T08:40:08;10.35;;;5.70;;
77513;SDS011;66626;48.872;9.084;2024-01-30T08:42:34;11.60;;;5.25;;
77513;SDS011;66626;48.872;9.084;2024-01-30T08:44:59;9.80;;;5.05;;
77513;SDS011;66626;48.872;9.084;2024-01-30T08:47:24;10.10;;;5.07;;
77513;SDS011;66626;48.872;9.084;2024-01-30T08:49:50;11.10;;;5.75;;
77513;SDS011;66626;48.872;9.084;2024-01-30T08:52:16;11.25;;;5.22;;
77513;SDS011;66626;48.872;9.084;2024-01-30T08:54:41;12.80;;;5.80;;
77513;SDS011;66626;48.872;9.084;2024-01-30T08:57:07;11.27;;;5.32;;
77513;SDS011;66626;48.872;9.084;2024-01-30T08:59:32;10.75;;;5.15;;
77513;SDS011;66626;48.872;9.084;2024-01-30T09:01:58;9.05;;;5.07;;
77513;SDS011;66626;48.872;9.084;2024-01-30T09:04:24;9.75;;;5.40;;
77513;SDS011;66626;48.872;9.084;2024-01-30T09:06:49;22.58;;;11.13;;
77513;SDS011;66626;48.872;9.084;2024-01-30T09:09:15;33.13;;;15.98;;
77513;SDS011;66626;48.872;9.084;2024-01-30T09:11:40;22.63;;;11.05;;
77513;SDS011;66626;48.872;9.084;2024-01-30T09:14:06;16.85;;;9.10;;
77513;SDS011;66626;48.872;9.084;2024-01-30T09:16:31;13.95;;;7.72;;
77513;SDS011;66626;48.872;9.084;2024-01-30T09:18:56;15.00;;;7.20;;
77513;SDS011;66626;48.872;9.084;2024-01-30T09:21:22;10.48;;;5.68;;
77513;SDS011;66626;48.872;9.084;2024-01-30T09:23:48;12.27;;;6.47;;
77513;SDS011;66626;48.872;9.084;2024-01-30T09:26:13;11.18;;;5.45;;
77513;SDS011;66626;48.872;9.084;2024-01-30T09:28:38;8.95;;;5.65;;
77513;SDS011;66626;48.872;9.084;2024-01-30T09:31:03;14.95;;;5.78;;
77513;SDS011;66626;48.872;9.084;2024-01-30T09:33:29;11.40;;;5.07;;
77513;SDS011;66626;48.872;9.084;2024-01-30T09:35:54;12.90;;;5.65;;
77513;SDS011;66626;48.872;9.084;2024-01-30T09:38:19;10.18;;;5.60;;
77513;SDS011;66626;48.872;9.084;2024-01-30T09:40:45;10.38;;;4.80;;
77513;SDS011;66626;48.872;9.084;2024-01-30T09:45:40;12.18;;;4.28;;
77513;SDS011;66626;48.872;9.084;2024-01-30T09:48:07;10.93;;;4.80;;
77513;SDS011;66626;48.872;9.084;2024-01-30T09:50:33;10.85;;;5.35;;
77513;SDS011;66626;48.872;9.084;2024-01-30T09:53:01;12.25;;;4.85;;
77513;SDS011;66626;48.872;9.084;2024-01-30T09:55:26;13.15;;;4.65;;
77513;SDS011;66626;48.872;9.084;2024-01-30T09:57:52;9.82;;;5.03;;
77513;SDS011;66626;48.872;9.084;2024-01-30T10:00:17;9.43;;;4.95;;
77513;SDS011;66626;48.872;9.084;2024-01-30T10:02:43;12.98;;;4.93;;
77513;SDS011;66626;48.872;9.084;2024-01-30T10:05:09;12.88;;;4.57;;
77513;SDS011;66626;48.872;9.084;2024-01-30T10:07:35;13.45;;;5.15;;
77513;SDS011;66626;48.872;9.084;2024-01-30T10:10:00;12.65;;;5.05;;
77513;SDS011;66626;48.872;9.084;2024-01-30T10:12:26;11.63;;;4.97;;
77513;SDS011;66626;48.872;9.084;2024-01-30T10:14:51;13.05;;;4.85;;
77513;SDS011;66626;48.872;9.084;2024-01-30T10:17:16;12.07;;;4.47;;
77513;SDS011;66626;48.872;9.084;2024-01-30T10:19:42;9.43;;;4.65;;
77513;SDS011;66626;48.872;9.084;2024-01-30T10:22:07;11.85;;;5.00;;
77513;SDS011;66626;48.872;9.084;2024-01-30T10:24:34;10.93;;;4.60;;
77513;SDS011;66626;48.872;9.084;2024-01-30T10:26:59;11.77;;;4.53;;
77513;SDS011;66626;48.872;9.084;2024-01-30T10:29:25;10.57;;;4.95;;
77513;SDS011;66626;48.872;9.084;2024-01-30T10:32:03;10.88;;;5.35;;
77513;SDS011;66626;48.872;9.084;2024-01-30T10:34:31;9.18;;;4.32;;
77513;SDS011;66626;48.872;9.084;2024-01-30T10:37:00;11.20;;;4.90;;
77513;SDS011;66626;48.872;9.084;2024-01-30T10:39:32;10.30;;;4.85;;
77513;SDS011;66626;48.872;9.084;2024-01-30T10:42:04;11.88;;;5.45;;
77513;SDS011;66626;48.872;9.084;2024-01-30T10:44:31;10.65;;;4.85;;
77513;SDS011;66626;48.872;9.084;2024-01-30T10:47:06;14.13;;;5.90;;
77513;SDS011;66626;48.872;9.084;2024-01-30T10:49:38;9.48;;;5.05;;
77513;SDS011;66626;48.872;9.084;2024-01-30T10:52:05;13.50;;;5.25;;
77513;SDS011;66626;48.872;9.084;2024-01-30T10:54:31;11.77;;;5.35;;
77513;SDS011;66626;48.872;9.084;2024-01-30T10:56:56;12.18;;;4.70;;
77513;SDS011;66626;48.872;9.084;2024-01-30T10:59:23;10.07;;;4.93;;
77513;SDS011;66626;48.872;9.084;2024-01-30T11:01:49;9.00;;;5.20;;
77513;SDS011;66626;48.872;9.084;2024-01-30T11:04:15;11.20;;;4.70;;
77513;SDS011;66626;48.872;9.084;2024-01-30T11:06:41;9.73;;;4.50;;
77513;SDS011;66626;48.872;9.084;2024-01-30T11:09:10;9.77;;;4.50;;
77513;SDS011;66626;48.872;9.084;2024-01-30T11:11:50;10.85;;;4.22;;
77513;SDS011;66626;48.872;9.084;2024-01-30T11:14:15;9.88;;;4.78;;
77513;SDS011;66626;48.872;9.084;2024-01-30T11:16:40;9.77;;;4.43;;
77513;SDS011;66626;48.872;9.084;2024-01-30T11:19:10;10.93;;;4.97;;
77513;SDS011;66626;48.872;9.084;2024-01-30T11:21:41;9.63;;;4.63;;
77513;SDS011;66626;48.872;9.084;2024-01-30T11:24:07;14.25;;;4.10;;
77513;SDS011;66626;48.872;9.084;2024-01-30T11:26:32;8.75;;;4.40;;
77513;SDS011;66626;48.872;9.084;2024-01-30T11:28:58;8.40;;;4.22;;
77513;SDS011;66626;48.872;9.084;2024-01-30T11:31:23;12.35;;;6.15;;
77513;SDS011;66626;48.872;9.084;2024-01-30T11:33:52;7.68;;;4.45;;
77513;SDS011;66626;48.872;9.084;2024-01-30T11:36:17;12.57;;;5.45;;
77513;SDS011;66626;48.872;9.084;2024-01-30T11:38:46;9.95;;;5.07;;
77513;SDS011;66626;48.872;9.084;2024-01-30T11:41:12;10.40;;;4.68;;
77513;SDS011;66626;48.872;9.084;2024-01-30T11:43:38;13.52;;;5.70;;
77513;SDS011;66626;48.872;9.084;2024-01-30T11:46:05;8.52;;;4.80;;
77513;SDS011;66626;48.872;9.084;2024-01-30T11:48:31;12.05;;;5.15;;
77513;SDS011;66626;48.872;9.084;2024-01-30T11:50:57;9.70;;;5.20;;
77513;SDS011;66626;48.872;9.084;2024-01-30T11:53:22;10.68;;;5.38;;
77513;SDS011;66626;48.872;9.084;2024-01-30T11:55:50;11.18;;;5.90;;
77513;SDS011;66626;48.872;9.084;2024-01-30T11:58:16;11.30;;;6.38;;
77513;SDS011;66626;48.872;9.084;2024-01-30T12:00:41;12.07;;;6.38;;
77513;SDS011;66626;48.872;9.084;2024-01-30T12:03:07;15.15;;;6.75;;
77513;SDS011;66626;48.872;9.084;2024-01-30T12:05:32;14.35;;;6.90;;
77513;SDS011;66626;48.872;9.084;2024-01-30T12:07:57;11.35;;;6.57;;
77513;SDS011;66626;48.872;9.084;2024-01-30T12:10:25;11.25;;;6.20;;
77513;SDS011;66626;48.872;9.084;2024-01-30T12:12:51;13.10;;;6.38;;
77513;SDS011;66626;48.872;9.084;2024-01-30T12:15:18;15.27;;;6.97;;
77513;SDS011;66626;48.872;9.084;2024-01-30T12:17:43;11.95;;;6.13;;
77513;SDS011;66626;48.872;9.084;2024-01-30T12:20:09;15.20;;;7.00;;
77513;SDS011;66626;48.872;9.084;2024-01-30T12:25:05;14.55;;;7.68;;
77513;SDS011;66626;48.872;9.084;2024-01-30T12:27:33;13.88;;;7.18;;
77513;SDS011;66626;48.872;9.084;2024-01-30T12:29:58;13.93;;;7.15;;
77513;SDS011;66626;48.872;9.084;2024-01-30T12:32:24;14.43;;;7.13;;
77513;SDS011;66626;48.872;9.084;2024-01-30T12:34:49;14.38;;;7.32;;
77513;SDS011;66626;48.872;9.084;2024-01-30T12:37:15;16.08;;;8.48;;
77513;SDS011;66626;48.872;9.084;2024-01-30T12:39:44;18.45;;;8.23;;
77513;SDS011;66626;48.872;9.084;2024-01-30T12:42:10;15.50;;;8.73;;
77513;SDS011;66626;48.872;9.084;2024-01-30T12:44:35;16.10;;;7.47;;
77513;SDS011;66626;48.872;9.084;2024-01-30T12:47:02;18.92;;;8.65;;
77513;SDS011;66626;48.872;9.084;2024-01-30T12:49:28;14.10;;;8.02;;
77513;SDS011;66626;48.872;9.084;2024-01-30T12:51:54;19.63;;;9.68;;
77513;SDS011;66626;48.872;9.084;2024-01-30T12:54:19;19.27;;;8.63;;
77513;SDS011;66626;48.872;9.084;2024-01-30T12:56:44;18.38;;;9.27;;
77513;SDS011;66626;48.872;9.084;2024-01-30T12:59:10;19.15;;;9.25;;
77513;SDS011;66626;48.872;9.084;2024-01-30T13:01:35;26.92;;;12.70;;
77513;SDS011;66626;48.872;9.084;2024-01-30T13:04:01;19.40;;;10.30;;
77513;SDS011;66626;48.872;9.084;2024-01-30T13:06:26;13.88;;;9.10;;
77513;SDS011;66626;48.872;9.084;2024-01-30T13:08:52;14.60;;;8.40;;
77513;SDS011;66626;48.872;9.084;2024-01-30T13:11:17;15.80;;;8.75;;
77513;SDS011;66626;48.872;9.084;2024-01-30T13:13:43;13.63;;;8.45;;
77513;SDS011;66626;48.872;9.084;2024-01-30T13:16:08;15.32;;;8.57;;
77513;SDS011;66626;48.872;9.084;2024-01-30T13:18:33;17.98;;;9.05;;
77513;SDS011;66626;48.872;9.084;2024-01-30T13:20:59;13.07;;;8.25;;
77513;SDS011;66626;48.872;9.084;2024-01-30T13:23:24;15.57;;;7.78;;
77513;SDS011;66626;48.872;9.084;2024-01-30T13:25:49;13.93;;;7.55;;
77513;SDS011;66626;48.872;9.084;2024-01-30T13:28:15;14.77;;;7.68;;
77513;SDS011;66626;48.872;9.084;2024-01-30T13:30:40;16.13;;;7.65;;
77513;SDS011;66626;48.872;9.084;2024-01-30T13:33:05;17.48;;;7.82;;
77513;SDS011;66626;48.872;9.084;2024-01-30T13:35:31;14.93;;;8.00;;
77513;SDS011;66626;48.872;9.084;2024-01-30T13:37:56;14.20;;;8.40;;
77513;SDS011;66626;48.872;9.084;2024-01-30T13:40:21;11.63;;;8.00;;
77513;SDS011;66626;48.872;9.084;2024-01-30T13:42:47;18.33;;;7.47;;
77513;SDS011;66626;48.872;9.084;2024-01-30T13:45:12;12.77;;;8.18;;
77513;SDS011;66626;48.872;9.084;2024-01-30T13:47:38;12.88;;;8.35;;
77513;SDS011;66626;48.872;9.084;2024-01-30T13:50:03;13.00;;;7.78;;
77513;SDS011;66626;48.872;9.084;2024-01-30T13:52:29;13.27;;;7.63;;
77513;SDS011;66626;48.872;9.084;2024-01-30T13:54:55;13.25;;;6.95;;
77513;SDS011;66626;48.872;9.084;2024-01-30T13:57:20;14.80;;;7.43;;
77513;SDS011;66626;48.872;9.084;2024-01-30T13:59:45;12.85;;;7.35;;
77513;SDS011;66626;48.872;9.084;2024-01-30T14:02:11;12.60;;;8.45;;
77513;SDS011;66626;48.872;9.084;2024-01-30T14:04:36;14.80;;;7.53;;
77513;SDS011;66626;48.872;9.084;2024-01-30T14:07:02;13.77;;;7.43;;
77513;SDS011;66626;48.872;9.084;2024-01-30T14:09:28;12.50;;;7.05;;
77513;SDS011;66626;48.872;9.084;2024-01-30T14:11:54;14.23;;;6.78;;
77513;SDS011;66626;48.872;9.084;2024-01-30T14:14:19;12.88;;;6.75;;
77513;SDS011;66626;48.872;9.084;2024-01-30T14:16:45;11.52;;;6.30;;
77513;SDS011;66626;48.872;9.084;2024-01-30T14:19:10;12.63;;;6.72;;
77513;SDS011;66626;48.872;9.084;2024-01-30T14:21:35;16.98;;;8.45;;
77513;SDS011;66626;48.872;9.084;2024-01-30T14:24:02;13.25;;;7.15;;
77513;SDS011;66626;48.872;9.084;2024-01-30T14:26:27;12.32;;;7.32;;
77513;SDS011;66626;48.872;9.084;2024-01-30T14:28:53;13.82;;;7.75;;
77513;SDS011;66626;48.872;9.084;2024-01-30T14:31:20;12.90;;;7.88;;
77513;SDS011;66626;48.872;9.084;2024-01-30T14:33:46;12.98;;;7.78;;